KRID/RID METAR and TAF weather

Enter ICAO airport designator
Station Type Date Time Source
KRID METAR 2019/06/26 17:55 UTC NOAA

KRID 261755Z AUTO 28008KT 10SM CLR 28/20 A3015 RMK AO2


Station Type Date Time Source
KRID Decoded METAR 2019/06/26 17:55 UTC NOAA

Station name not available
Jun 26, 2019 - 01:55 PM EDT / 2019.06.26 1755 UTC
Wind: from the W (280 degrees) at 9 MPH (8 KT):0
Visibility: 10 mile(s):0
Sky conditions: clear
Temperature: 82 F (28 C)
Dew Point: 68 F (20 C)
Relative Humidity: 61%
Pressure (altimeter): 30.15 in. Hg (1020 hPa)
ob: KRID 261755Z AUTO 28008KT 10SM CLR 28/20 A3015 RMK AO2
cycle: 18

Station Type Date Time Source
KRID TAF UTC NOAA

Error!

Example: see airport list